createdAt,value
2017-11-27T00:01:29.993Z,0.97
2017-11-27T00:03:57.503Z,0.91
2017-11-27T00:06:25.058Z,0.89
2017-11-27T00:08:52.640Z,0.97
2017-11-27T00:11:20.169Z,1.00
2017-11-27T00:13:47.728Z,1.06
2017-11-27T00:16:15.297Z,1.08
2017-11-27T00:18:42.845Z,1.13
2017-11-27T00:21:10.435Z,1.14
2017-11-27T00:23:38.031Z,1.16
2017-11-27T00:26:05.626Z,1.16
2017-11-27T00:28:33.173Z,1.15
2017-11-27T00:31:00.811Z,1.16
2017-11-27T00:33:28.365Z,1.20
2017-11-27T00:35:55.926Z,1.22
2017-11-27T00:38:23.508Z,1.18
2017-11-27T00:40:51.062Z,1.16
2017-11-27T00:43:18.634Z,1.21
2017-11-27T00:45:46.232Z,1.16
2017-11-27T00:48:13.792Z,1.22
2017-11-27T00:50:41.381Z,1.23
2017-11-27T00:53:09.036Z,1.23
2017-11-27T00:55:36.613Z,1.20
2017-11-27T00:58:04.189Z,1.30
2017-11-27T01:00:31.752Z,1.21
2017-11-27T01:02:59.334Z,1.18
2017-11-27T01:05:27.029Z,1.27
2017-11-27T01:07:54.573Z,1.28
2017-11-27T01:10:22.128Z,1.33
2017-11-27T01:12:49.654Z,1.31
2017-11-27T01:15:17.193Z,1.35
2017-11-27T01:17:44.784Z,1.33
2017-11-27T01:20:12.318Z,1.31
2017-11-27T01:22:39.886Z,1.23
2017-11-27T01:25:07.594Z,1.19
2017-11-27T01:27:35.158Z,1.15
2017-11-27T01:30:02.691Z,1.18
2017-11-27T01:32:30.243Z,1.19
2017-11-27T01:34:57.786Z,1.19
2017-11-27T01:37:25.352Z,1.24
2017-11-27T01:39:52.935Z,1.25
2017-11-27T01:42:20.503Z,1.21
2017-11-27T01:44:48.093Z,1.20
2017-11-27T01:47:15.672Z,1.28
2017-11-27T01:49:43.223Z,1.28
2017-11-27T01:52:10.906Z,1.32
2017-11-27T01:54:38.502Z,1.23
2017-11-27T01:57:06.082Z,1.25
2017-11-27T01:59:33.665Z,1.25
2017-11-27T02:02:01.235Z,1.28
2017-11-27T02:04:28.803Z,1.31
2017-11-27T02:06:56.383Z,1.26
2017-11-27T02:09:23.987Z,1.21
2017-11-27T02:11:51.557Z,1.19
2017-11-27T02:14:19.110Z,1.17
2017-11-27T02:16:46.679Z,1.16
2017-11-27T02:19:14.213Z,1.19
2017-11-27T02:21:41.757Z,1.34
2017-11-27T02:24:09.325Z,1.28
2017-11-27T02:26:36.875Z,1.27
2017-11-27T02:29:04.526Z,1.24
2017-11-27T02:31:32.093Z,1.30
2017-11-27T02:33:59.636Z,1.25
2017-11-27T02:36:27.190Z,1.23
2017-11-27T02:38:54.774Z,1.21
2017-11-27T02:41:22.366Z,1.23
2017-11-27T02:43:49.923Z,1.25
2017-11-27T02:46:17.510Z,1.25
2017-11-27T02:48:45.052Z,1.29
2017-11-27T02:51:12.736Z,1.28
2017-11-27T02:53:40.777Z,1.30
2017-11-27T02:56:08.661Z,1.29
2017-11-27T02:58:36.208Z,1.33
2017-11-27T03:01:03.758Z,1.40
2017-11-27T03:03:31.801Z,1.31
2017-11-27T03:05:59.458Z,1.41
2017-11-27T03:08:27.008Z,1.41
2017-11-27T03:10:54.580Z,1.32
2017-11-27T03:13:22.271Z,1.28
2017-11-27T03:15:49.806Z,1.30
2017-11-27T03:18:17.369Z,1.26
2017-11-27T03:20:44.929Z,1.22
2017-11-27T03:23:12.714Z,1.21
2017-11-27T03:25:40.316Z,1.35
2017-11-27T03:28:07.917Z,1.32
2017-11-27T03:30:37.193Z,1.27
2017-11-27T03:33:04.863Z,1.32
2017-11-27T03:35:32.417Z,1.27
2017-11-27T03:38:00.041Z,1.29
2017-11-27T03:40:27.578Z,1.32
2017-11-27T03:42:55.183Z,1.34
2017-11-27T03:45:22.819Z,1.33
2017-11-27T03:47:50.486Z,1.34
2017-11-27T03:50:18.042Z,1.29
2017-11-27T03:52:45.641Z,1.30
2017-11-27T03:55:13.521Z,1.20
2017-11-27T03:57:41.073Z,1.13
2017-11-27T04:00:08.664Z,1.05
2017-11-27T04:02:36.243Z,1.13
2017-11-27T04:05:03.827Z,1.10
2017-11-27T04:07:31.394Z,1.14
2017-11-27T04:09:58.976Z,1.12
2017-11-27T04:12:26.527Z,1.08
2017-11-27T04:14:54.105Z,1.11
2017-11-27T04:17:21.705Z,1.12
2017-11-27T04:19:49.241Z,1.07
2017-11-27T04:22:16.779Z,1.06
2017-11-27T04:24:44.352Z,1.08
2017-11-27T04:27:11.891Z,1.06
2017-11-27T04:29:39.462Z,1.05
2017-11-27T04:32:07.015Z,1.04
2017-11-27T04:34:35.282Z,0.98
2017-11-27T04:37:03.208Z,0.93
2017-11-27T04:39:31.103Z,0.96
2017-11-27T04:41:58.623Z,0.91
2017-11-27T04:44:26.158Z,0.86
2017-11-27T04:46:53.676Z,0.86
2017-11-27T04:49:21.208Z,0.85
2017-11-27T04:51:48.716Z,0.84
2017-11-27T04:54:16.233Z,0.84
2017-11-27T04:56:43.701Z,0.95
2017-11-27T04:59:11.247Z,1.03
2017-11-27T05:01:38.772Z,1.02
2017-11-27T05:04:06.292Z,1.09
2017-11-27T05:06:33.826Z,1.13
2017-11-27T05:09:01.392Z,1.14
2017-11-27T05:11:28.931Z,1.10
2017-11-27T05:13:56.469Z,1.03
2017-11-27T05:16:24.275Z,1.13
2017-11-27T05:18:52.022Z,1.14
2017-11-27T05:21:19.595Z,1.09
2017-11-27T05:23:47.159Z,1.04
2017-11-27T05:26:14.707Z,1.09
2017-11-27T05:28:42.296Z,1.09
2017-11-27T05:31:10.128Z,1.12
2017-11-27T05:33:37.701Z,1.12
2017-11-27T05:36:05.270Z,1.15
2017-11-27T05:38:32.815Z,1.12
2017-11-27T05:41:00.343Z,1.10
2017-11-27T05:43:28.053Z,1.11
2017-11-27T05:45:55.625Z,1.15
2017-11-27T05:48:23.236Z,1.11
2017-11-27T05:50:50.800Z,1.10
2017-11-27T05:53:18.348Z,1.10
2017-11-27T05:55:45.910Z,1.13
2017-11-27T05:58:13.492Z,1.10
2017-11-27T06:00:41.092Z,1.14
2017-11-27T06:03:08.862Z,1.17
2017-11-27T06:05:36.492Z,1.14
2017-11-27T06:08:04.105Z,1.13
2017-11-27T06:10:32.222Z,1.14
2017-11-27T06:12:59.771Z,1.11
2017-11-27T06:15:27.325Z,1.10
2017-11-27T06:17:54.877Z,1.12
2017-11-27T06:20:22.412Z,1.07
2017-11-27T06:22:49.973Z,1.10
2017-11-27T06:25:17.513Z,1.09
2017-11-27T06:27:45.072Z,1.07
2017-11-27T06:30:12.825Z,1.04
2017-11-27T06:32:40.400Z,1.06
2017-11-27T06:35:07.989Z,1.09
2017-11-27T06:37:35.566Z,1.06
2017-11-27T06:40:03.091Z,1.11
2017-11-27T06:42:30.652Z,1.10
2017-11-27T06:44:58.215Z,1.11
2017-11-27T06:47:25.761Z,1.11
2017-11-27T06:49:53.297Z,1.20
2017-11-27T06:52:20.868Z,1.23
2017-11-27T06:54:48.404Z,1.23
2017-11-27T06:57:16.285Z,1.28
2017-11-27T06:59:43.844Z,1.25
2017-11-27T07:02:11.392Z,1.25
2017-11-27T07:04:38.935Z,1.28
2017-11-27T07:07:06.639Z,1.29
2017-11-27T07:09:34.170Z,1.33
2017-11-27T07:12:01.680Z,1.30
2017-11-27T07:14:29.244Z,1.33
2017-11-27T07:16:56.792Z,1.37
2017-11-27T07:19:24.330Z,1.35
2017-11-27T07:21:51.893Z,1.39
2017-11-27T07:24:19.423Z,1.42
2017-11-27T07:26:46.979Z,1.48
2017-11-27T07:29:14.624Z,1.60
2017-11-27T07:31:42.166Z,1.59
2017-11-27T07:34:09.727Z,1.50
2017-11-27T07:36:37.286Z,1.51
2017-11-27T07:39:10.432Z,1.59
2017-11-27T07:41:38.040Z,1.57
2017-11-27T07:44:05.607Z,1.58
2017-11-27T07:46:33.197Z,1.63
2017-11-27T07:49:00.763Z,1.55
2017-11-27T07:51:28.303Z,1.60
2017-11-27T07:53:55.851Z,1.65
2017-11-27T07:56:23.419Z,1.70
2017-11-27T07:58:50.959Z,1.66
2017-11-27T08:01:18.513Z,1.68
2017-11-27T08:03:46.114Z,1.69
2017-11-27T08:06:13.655Z,1.79
2017-11-27T08:08:41.324Z,1.86
2017-11-27T08:11:09.182Z,1.89
2017-11-27T08:13:38.193Z,1.72
2017-11-27T08:16:05.817Z,1.70
2017-11-27T08:18:33.430Z,1.75
2017-11-27T08:21:00.974Z,1.70
2017-11-27T08:23:29.929Z,1.75
2017-11-27T08:25:57.570Z,1.73
2017-11-27T08:28:25.133Z,1.83
2017-11-27T08:30:52.660Z,1.81
2017-11-27T08:33:20.318Z,1.86
2017-11-27T08:35:47.934Z,1.86
2017-11-27T08:38:15.479Z,1.93
2017-11-27T08:40:43.057Z,2.00
2017-11-27T08:43:11.186Z,2.02
2017-11-27T08:45:39.713Z,1.96
2017-11-27T08:48:07.309Z,2.03
2017-11-27T08:50:34.895Z,2.10
2017-11-27T08:53:02.474Z,2.17
2017-11-27T08:55:30.037Z,2.10
2017-11-27T08:57:57.599Z,2.20
2017-11-27T09:00:25.172Z,2.29
2017-11-27T09:02:52.757Z,2.36
2017-11-27T09:05:33.054Z,2.25
2017-11-27T09:08:00.657Z,2.28
2017-11-27T09:10:30.280Z,2.23
2017-11-27T09:12:57.828Z,2.31
2017-11-27T09:15:25.393Z,2.39
2017-11-27T09:17:52.954Z,2.53
2017-11-27T09:20:20.617Z,2.50
2017-11-27T09:22:48.192Z,2.64
2017-11-27T09:25:16.089Z,2.56
2017-11-27T09:27:45.120Z,2.51
2017-11-27T09:30:12.741Z,2.54
2017-11-27T09:32:40.293Z,2.69
2017-11-27T09:35:07.882Z,2.73
2017-11-27T09:37:35.516Z,2.75
2017-11-27T09:40:03.076Z,2.63
2017-11-27T09:42:30.657Z,2.64
2017-11-27T09:44:58.268Z,2.65
2017-11-27T09:47:26.661Z,2.54
2017-11-27T09:49:54.225Z,2.61
2017-11-27T09:52:21.905Z,2.58
2017-11-27T09:54:49.858Z,2.54
2017-11-27T09:57:17.512Z,2.37
2017-11-27T09:59:45.110Z,2.50
2017-11-27T10:02:12.675Z,2.56
2017-11-27T10:04:40.280Z,2.53
2017-11-27T10:07:08.161Z,2.64
2017-11-27T10:09:35.785Z,2.63
2017-11-27T10:12:03.377Z,2.52
2017-11-27T10:14:30.966Z,2.48
2017-11-27T10:16:58.539Z,2.59
2017-11-27T10:19:26.742Z,2.96
2017-11-27T10:21:54.396Z,2.79
2017-11-27T10:24:23.579Z,2.57
2017-11-27T10:26:51.192Z,2.68
2017-11-27T10:29:18.750Z,2.70
2017-11-27T10:31:46.326Z,2.74
2017-11-27T10:34:13.916Z,2.85
2017-11-27T10:36:41.483Z,2.89
2017-11-27T10:39:09.163Z,3.25
2017-11-27T10:41:36.809Z,3.12
2017-11-27T10:44:04.546Z,3.19
2017-11-27T10:46:32.112Z,3.27
2017-11-27T10:48:59.794Z,3.25
2017-11-27T10:51:28.105Z,2.92
2017-11-27T10:53:55.757Z,2.92
2017-11-27T10:56:23.381Z,2.88
2017-11-27T10:58:51.032Z,2.75
2017-11-27T11:01:18.701Z,2.98
2017-11-27T11:03:48.277Z,3.05
2017-11-27T11:06:15.917Z,3.14
2017-11-27T11:08:43.508Z,3.27
2017-11-27T11:11:12.363Z,3.20
2017-11-27T11:13:40.318Z,3.44
2017-11-27T11:16:08.043Z,3.53
2017-11-27T11:18:36.200Z,3.44
2017-11-27T11:21:03.942Z,3.44
2017-11-27T11:23:31.997Z,3.32
2017-11-27T11:26:07.022Z,3.48
2017-11-27T11:28:34.794Z,3.83
2017-11-27T11:31:03.707Z,3.40
2017-11-27T11:33:31.309Z,3.40
2017-11-27T11:35:58.886Z,3.71
2017-11-27T11:38:26.441Z,3.59
2017-11-27T11:40:54.108Z,3.25
2017-11-27T11:43:21.690Z,3.18
2017-11-27T11:45:49.243Z,3.26
2017-11-27T11:48:16.850Z,3.30
2017-11-27T11:50:45.489Z,3.57
2017-11-27T11:53:13.204Z,3.80
2017-11-27T11:55:40.819Z,3.89
2017-11-27T12:00:36.186Z,3.89
2017-11-27T12:03:03.810Z,3.83
2017-11-27T12:05:31.348Z,3.66
2017-11-27T12:07:59.479Z,3.56
2017-11-27T12:10:27.097Z,3.96
2017-11-27T12:12:54.683Z,3.91
2017-11-27T12:15:22.269Z,3.72
2017-11-27T12:17:50.621Z,3.41
2017-11-27T12:20:18.249Z,3.07
2017-11-27T12:22:45.830Z,2.83
2017-11-27T12:25:13.439Z,3.00
2017-11-27T12:27:41.540Z,3.07
2017-11-27T12:30:09.930Z,3.04
2017-11-27T12:32:37.526Z,3.44
2017-11-27T12:35:06.014Z,3.80
2017-11-27T12:37:34.820Z,4.60
2017-11-27T12:40:02.400Z,5.14
2017-11-27T12:42:34.316Z,5.67
2017-11-27T12:45:01.945Z,5.62
2017-11-27T12:47:29.926Z,6.10
2017-11-27T12:49:57.518Z,6.05
2017-11-27T12:52:25.130Z,6.49
2017-11-27T12:54:52.713Z,6.30
2017-11-27T12:57:20.326Z,6.24
2017-11-27T12:59:47.907Z,6.79
2017-11-27T13:02:15.791Z,6.96
2017-11-27T13:04:43.406Z,6.75
2017-11-27T13:07:11.322Z,6.06
2017-11-27T13:09:38.871Z,5.44
2017-11-27T13:12:06.543Z,5.91
2017-11-27T13:14:34.086Z,5.88
2017-11-27T13:17:01.656Z,6.15
2017-11-27T13:19:29.244Z,6.05
2017-11-27T13:21:56.804Z,6.40
2017-11-27T13:24:24.411Z,5.94
2017-11-27T13:26:51.984Z,6.10
2017-11-27T13:29:19.659Z,6.30
2017-11-27T13:31:47.268Z,6.07
2017-11-27T13:34:14.816Z,5.23
2017-11-27T13:36:42.381Z,5.31
2017-11-27T13:39:10.023Z,4.87
2017-11-27T13:41:37.619Z,4.67
2017-11-27T13:44:05.177Z,4.54
2017-11-27T13:46:32.737Z,5.03
2017-11-27T13:49:00.293Z,5.06
2017-11-27T13:51:27.850Z,4.17
2017-11-27T13:53:55.407Z,3.48
2017-11-27T13:56:23.443Z,3.17
2017-11-27T13:58:51.506Z,3.07
2017-11-27T14:01:19.089Z,3.07
2017-11-27T14:03:46.644Z,2.90
2017-11-27T14:06:14.404Z,2.84
2017-11-27T14:08:41.948Z,3.02
2017-11-27T14:11:09.638Z,3.14
2017-11-27T14:13:37.251Z,3.10
2017-11-27T14:16:04.803Z,2.94
2017-11-27T14:18:32.366Z,2.83
2017-11-27T14:20:59.923Z,2.92
2017-11-27T14:23:27.631Z,2.71
2017-11-27T14:25:55.199Z,2.64
2017-11-27T14:28:23.770Z,2.54
2017-11-27T14:30:51.325Z,2.54
2017-11-27T14:33:18.916Z,2.57
2017-11-27T14:35:46.524Z,2.51
2017-11-27T14:38:14.158Z,2.47
2017-11-27T14:40:41.706Z,2.43
2017-11-27T14:43:09.377Z,2.35
2017-11-27T14:45:37.477Z,2.28
2017-11-27T14:48:05.182Z,2.18
2017-11-27T14:50:32.910Z,2.16
2017-11-27T14:53:00.446Z,2.20
2017-11-27T14:55:28.064Z,2.19
2017-11-27T14:57:55.708Z,2.17
2017-11-27T15:00:23.347Z,2.06
2017-11-27T15:02:52.790Z,2.11
2017-11-27T15:05:20.368Z,2.08
2017-11-27T15:07:47.966Z,2.04
2017-11-27T15:10:15.575Z,2.01
2017-11-27T15:12:43.158Z,2.08
2017-11-27T15:15:10.838Z,2.00
2017-11-27T15:17:38.417Z,2.03
2017-11-27T15:20:06.064Z,2.02
2017-11-27T15:22:33.660Z,2.00
2017-11-27T15:25:01.228Z,1.92
2017-11-27T15:27:29.289Z,1.76
2017-11-27T15:29:56.872Z,1.55
2017-11-27T15:32:24.505Z,1.59
2017-11-27T15:34:52.088Z,1.48
2017-11-27T15:37:19.736Z,1.36
2017-11-27T15:39:47.368Z,1.28
2017-11-27T15:42:14.979Z,1.21
2017-11-27T15:44:42.577Z,1.15
2017-11-27T15:47:10.380Z,1.20
2017-11-27T15:49:38.259Z,1.06
2017-11-27T15:52:06.167Z,1.21
2017-11-27T15:54:33.840Z,1.23
2017-11-27T15:57:01.468Z,1.08
2017-11-27T15:59:29.070Z,1.05
2017-11-27T16:01:56.669Z,0.90
2017-11-27T16:04:24.270Z,0.83
2017-11-27T16:06:51.863Z,0.76
2017-11-27T16:09:19.493Z,0.65
2017-11-27T16:11:47.085Z,0.61
2017-11-27T16:14:14.669Z,0.53
2017-11-27T16:16:42.224Z,0.48
2017-11-27T16:19:09.892Z,0.35
2017-11-27T16:21:37.455Z,0.23
2017-11-27T16:24:05.060Z,0.14
2017-11-27T16:26:32.680Z,0.00
2017-11-27T16:29:00.275Z,-0.15
2017-11-27T16:31:27.977Z,-0.24
2017-11-27T16:33:55.545Z,-0.29
2017-11-27T16:36:24.605Z,-0.23
2017-11-27T16:38:52.186Z,-0.20
2017-11-27T16:41:19.787Z,-0.16
2017-11-27T16:43:47.393Z,-0.01
2017-11-27T16:46:14.969Z,0.07
2017-11-27T16:48:42.571Z,0.19
2017-11-27T16:51:10.184Z,0.27
2017-11-27T16:53:37.761Z,0.27
2017-11-27T16:56:05.320Z,0.39
2017-11-27T16:58:33.034Z,0.47
2017-11-27T17:01:00.617Z,0.60
2017-11-27T17:03:28.273Z,0.54
2017-11-27T17:05:55.990Z,0.54
2017-11-27T17:08:23.553Z,0.55
2017-11-27T17:10:51.193Z,0.57
2017-11-27T17:13:18.755Z,0.65
2017-11-27T17:15:46.360Z,0.61
2017-11-27T17:18:14.006Z,0.68
2017-11-27T17:20:41.642Z,0.86
2017-11-27T17:23:09.334Z,1.04
2017-11-27T17:25:36.952Z,1.08
2017-11-27T17:28:04.580Z,1.08
2017-11-27T17:30:32.443Z,1.21
2017-11-27T17:33:00.062Z,1.16
2017-11-27T17:35:27.727Z,1.02
2017-11-27T17:37:55.378Z,0.93
2017-11-27T17:40:23.042Z,0.95
2017-11-27T17:42:50.691Z,1.08
2017-11-27T17:45:18.400Z,1.06
2017-11-27T17:47:46.284Z,1.05
2017-11-27T17:50:13.900Z,1.04
2017-11-27T17:52:41.502Z,1.04
2017-11-27T17:55:09.140Z,1.04
2017-11-27T17:57:36.826Z,0.90
2017-11-27T18:00:05.187Z,1.02
2017-11-27T18:02:32.810Z,1.37
2017-11-27T18:05:00.404Z,1.41
2017-11-27T18:07:28.023Z,1.42
2017-11-27T18:09:55.734Z,1.36
2017-11-27T18:12:23.368Z,1.42
2017-11-27T18:14:50.936Z,1.46
2017-11-27T18:17:18.510Z,1.46
2017-11-27T18:19:46.109Z,1.38
2017-11-27T18:22:13.713Z,1.23
2017-11-27T18:24:41.293Z,0.93
2017-11-27T18:27:09.145Z,0.92
2017-11-27T18:29:36.790Z,0.86
2017-11-27T18:32:04.387Z,0.66
2017-11-27T18:34:31.968Z,0.58
2017-11-27T18:36:59.572Z,0.57
2017-11-27T18:39:27.157Z,0.51
2017-11-27T18:41:54.722Z,0.61
2017-11-27T18:44:22.323Z,0.74
2017-11-27T18:46:49.887Z,0.59
2017-11-27T18:49:17.466Z,0.51
2017-11-27T18:51:45.092Z,0.46
2017-11-27T18:54:12.653Z,0.46
2017-11-27T18:56:40.247Z,0.42
2017-11-27T18:59:07.854Z,0.42
2017-11-27T19:01:35.479Z,0.56
2017-11-27T19:04:03.041Z,0.68
2017-11-27T19:06:30.688Z,0.68
2017-11-27T19:08:58.267Z,0.72
2017-11-27T19:11:25.832Z,0.79
2017-11-27T19:13:53.444Z,0.78
2017-11-27T19:16:21.134Z,1.21
2017-11-27T19:18:48.695Z,1.25
2017-11-27T19:21:16.287Z,1.24
2017-11-27T19:23:44.028Z,1.38
2017-11-27T19:26:11.764Z,1.47
2017-11-27T19:28:39.453Z,1.57
2017-11-27T19:31:07.020Z,1.58
2017-11-27T19:33:34.633Z,1.62
2017-11-27T19:36:02.777Z,1.61
2017-11-27T19:38:30.522Z,1.68
2017-11-27T19:40:58.128Z,1.63
2017-11-27T19:43:25.886Z,1.74
2017-11-27T19:45:53.474Z,1.71
2017-11-27T19:48:21.117Z,1.74
2017-11-27T19:50:48.994Z,1.70
2017-11-27T19:53:16.566Z,1.69
2017-11-27T19:55:44.187Z,1.56
2017-11-27T19:58:11.761Z,1.64
2017-11-27T20:00:39.359Z,1.67
2017-11-27T20:03:07.022Z,1.70
2017-11-27T20:05:34.706Z,1.73
2017-11-27T20:08:02.306Z,1.63
2017-11-27T20:10:30.960Z,1.78
2017-11-27T20:12:58.555Z,1.82
2017-11-27T20:15:26.118Z,1.80
2017-11-27T20:17:53.715Z,1.75
2017-11-27T20:20:21.283Z,1.76
2017-11-27T20:22:48.911Z,1.83
2017-11-27T20:25:16.589Z,1.94
2017-11-27T20:27:44.228Z,1.84
2017-11-27T20:30:11.819Z,1.77
2017-11-27T20:32:39.407Z,1.65
2017-11-27T20:35:07.086Z,1.74
2017-11-27T20:37:34.688Z,1.76
2017-11-27T20:40:02.726Z,1.79
2017-11-27T20:42:30.383Z,1.83
2017-11-27T20:44:57.942Z,1.88
2017-11-27T20:47:25.675Z,1.96
2017-11-27T20:49:53.333Z,1.92
2017-11-27T20:52:20.923Z,2.01
2017-11-27T20:54:48.579Z,2.01
2017-11-27T20:57:16.221Z,1.96
2017-11-27T20:59:43.804Z,2.11
2017-11-27T21:02:11.370Z,2.16
2017-11-27T21:04:38.940Z,2.15
2017-11-27T21:07:06.545Z,2.18
2017-11-27T21:09:34.105Z,2.14
2017-11-27T21:12:01.726Z,2.15
2017-11-27T21:14:29.385Z,2.10
2017-11-27T21:19:30.659Z,2.15
2017-11-27T21:21:58.250Z,2.16
2017-11-27T21:24:25.876Z,2.21
2017-11-27T21:26:53.473Z,2.33
2017-11-27T21:29:21.072Z,2.34
2017-11-27T21:31:48.633Z,2.43
2017-11-27T21:34:16.184Z,2.37
2017-11-27T21:36:43.797Z,2.36
2017-11-27T21:39:11.472Z,2.33
2017-11-27T21:41:39.213Z,2.39
2017-11-27T21:44:06.814Z,2.38
2017-11-27T21:46:34.402Z,2.34
2017-11-27T21:49:01.968Z,2.36
2017-11-27T21:51:30.082Z,2.36
2017-11-27T21:53:57.703Z,2.38
2017-11-27T21:56:25.286Z,2.40
2017-11-27T21:58:52.867Z,2.31
2017-11-27T22:01:20.423Z,2.19
2017-11-27T22:03:48.005Z,2.13
2017-11-27T22:06:15.571Z,2.11
2017-11-27T22:08:43.210Z,2.04
2017-11-27T22:11:10.956Z,2.00
2017-11-27T22:13:38.541Z,1.97
2017-11-27T22:16:06.113Z,1.96
2017-11-27T22:18:33.728Z,1.98
2017-11-27T22:21:01.321Z,1.98
2017-11-27T22:23:28.942Z,1.91
2017-11-27T22:25:56.543Z,1.98
2017-11-27T22:28:24.130Z,1.95
2017-11-27T22:30:51.702Z,1.88
2017-11-27T22:33:19.333Z,1.93
2017-11-27T22:35:46.927Z,1.67
2017-11-27T22:38:14.548Z,1.61
2017-11-27T22:40:42.189Z,1.50
2017-11-27T22:43:09.830Z,1.45
2017-11-27T22:45:37.387Z,1.37
2017-11-27T22:48:04.994Z,1.36
2017-11-27T22:50:32.593Z,1.16
2017-11-27T22:53:00.167Z,1.00
2017-11-27T22:55:27.795Z,0.92
2017-11-27T22:57:55.382Z,0.80
2017-11-27T23:00:22.965Z,0.83
2017-11-27T23:02:50.600Z,0.98
2017-11-27T23:05:18.220Z,0.90
2017-11-27T23:07:45.848Z,0.81
2017-11-27T23:10:13.628Z,0.68
2017-11-27T23:12:41.212Z,0.65
2017-11-27T23:15:09.014Z,0.43
2017-11-27T23:17:36.589Z,0.35
2017-11-27T23:20:04.351Z,0.29
2017-11-27T23:22:31.946Z,0.12
2017-11-27T23:24:59.535Z,0.20
2017-11-27T23:27:27.094Z,0.15
2017-11-27T23:29:54.713Z,0.06
2017-11-27T23:32:22.388Z,-0.04
2017-11-27T23:34:49.970Z,-0.11
2017-11-27T23:37:17.559Z,-0.16
2017-11-27T23:39:45.122Z,-0.34
2017-11-27T23:42:12.716Z,-0.30
2017-11-27T23:44:40.329Z,-0.31
2017-11-27T23:47:07.947Z,-0.18
2017-11-27T23:49:35.532Z,-0.25
2017-11-27T23:52:03.479Z,-0.40
2017-11-27T23:54:31.107Z,-0.46
2017-11-27T23:56:58.659Z,-0.55
2017-11-27T23:59:26.274Z,-0.65
